Time;durP1;ratioP1;P1;durP2;ratioP2;P2;SDS_P1;SDS_P2;PMS_P1;PMS_P2;Temp;Humidity;BMP_temperature;BMP_pressure;BME280_temperature;BME280_humidity;BME280_pressure;Samples;Min_cycle;Max_cycle;Signal;HPM_P1;HPM_P2
2022/07/20 00:00:39;;;;;;;7.93;3.70;;;23.80;75.80;;;;;;5019783;28;20060;-69
2022/07/20 00:03:12;;;;;;;7.20;3.45;;;23.70;76.80;;;;;;5020515;28;20063;-69
2022/07/20 00:05:39;;;;;;;8.38;3.50;;;23.60;76.40;;;;;;5020411;28;20485;-69
2022/07/20 00:08:05;;;;;;;7.07;3.45;;;23.60;76.30;;;;;;5035796;28;20045;-69
2022/07/20 00:13:18;;;;;;;8.65;3.80;;;23.50;77.30;;;;;;5036191;28;20489;-69
2022/07/20 00:15:44;;;;;;;9.13;3.55;;;23.40;77.70;;;;;;5020505;28;20044;-69
2022/07/20 00:18:10;;;;;;;6.63;3.20;;;23.40;76.90;;;;;;5052125;28;20029;-69
2022/07/20 00:20:36;;;;;;;7.38;3.40;;;23.40;77.50;;;;;;5028949;28;20094;-69
2022/07/20 00:23:03;;;;;;;7.15;3.40;;;23.30;77.10;;;;;;5039835;28;20486;-69
2022/07/20 00:25:30;;;;;;;7.32;3.50;;;23.30;77.90;;;;;;5035700;28;20509;-69
2022/07/20 00:27:55;;;;;;;7.75;3.55;;;23.20;77.00;;;;;;5036742;28;20397;-69
2022/07/20 00:30:21;;;;;;;9.48;3.47;;;23.20;78.20;;;;;;5020255;28;20041;-69
2022/07/20 00:32:47;;;;;;;7.03;3.65;;;23.20;78.10;;;;;;5035162;28;20103;-69
2022/07/20 00:35:14;;;;;;;7.15;3.65;;;23.20;78.30;;;;;;5035563;28;20036;-69
2022/07/20 00:37:40;;;;;;;7.22;3.50;;;23.10;78.80;;;;;;5036687;28;20033;-69
2022/07/20 00:40:08;;;;;;;8.52;3.53;;;23.00;79.10;;;;;;5036305;28;20045;-69
2022/07/20 00:42:34;;;;;;;7.68;3.58;;;23.00;79.30;;;;;;5035232;28;20064;-69
2022/07/20 00:45:00;;;;;;;7.10;3.08;;;23.00;80.80;;;;;;5022541;28;20087;-69
2022/07/20 00:47:26;;;;;;;6.43;3.20;;;23.00;81.40;;;;;;5053063;28;20507;-69
2022/07/20 00:49:51;;;;;;;7.07;3.00;;;22.90;82.00;;;;;;5030490;28;20474;-69
2022/07/20 00:52:17;;;;;;;8.57;3.60;;;22.90;82.40;;;;;;5029328;28;20124;-69
2022/07/20 00:54:45;;;;;;;8.32;3.50;;;22.80;82.50;;;;;;5019639;28;20033;-70
2022/07/20 00:57:11;;;;;;;9.45;3.47;;;22.80;83.20;;;;;;5019536;28;20146;-70
2022/07/20 00:59:37;;;;;;;7.68;3.42;;;22.70;84.10;;;;;;5034110;28;20079;-70
2022/07/20 01:02:03;;;;;;;6.88;3.45;;;22.70;84.10;;;;;;5047361;28;20045;-70
2022/07/20 01:04:28;;;;;;;8.18;3.08;;;22.60;84.20;;;;;;5026395;28;20048;-70
2022/07/20 01:06:55;;;;;;;10.57;3.75;;;22.60;83.70;;;;;;5019291;28;20044;-69
2022/07/20 01:09:20;;;;;;;6.72;3.83;;;22.50;83.90;;;;;;5033226;28;20472;-69
2022/07/20 01:11:46;;;;;;;6.43;3.10;;;22.50;83.70;;;;;;5034416;28;20033;-70
2022/07/20 01:14:12;;;;;;;7.20;3.17;;;22.50;84.80;;;;;;5017337;28;20511;-70
2022/07/20 01:16:38;;;;;;;7.78;3.20;;;22.50;85.60;;;;;;5018441;28;20036;-70
2022/07/20 01:19:06;;;;;;;6.40;3.25;;;22.40;85.20;;;;;;5018022;28;20078;-69
2022/07/20 01:21:33;;;;;;;7.05;3.70;;;22.30;85.80;;;;;;5034547;28;20554;-69
2022/07/20 01:23:58;;;;;;;8.43;3.50;;;22.30;84.70;;;;;;5019256;28;20108;-70
2022/07/20 01:26:24;;;;;;;9.70;3.50;;;22.30;84.50;;;;;;5019018;28;20048;-69
2022/07/20 01:28:50;;;;;;;6.47;3.60;;;22.20;85.40;;;;;;5019483;28;20439;-69
2022/07/20 01:31:16;;;;;;;7.20;3.85;;;22.20;85.00;;;;;;5032553;28;20050;-69
2022/07/20 01:33:42;;;;;;;6.20;3.65;;;22.10;84.40;;;;;;5035418;28;20179;-70
2022/07/20 01:36:08;;;;;;;7.10;3.40;;;22.10;85.00;;;;;;5035273;28;20060;-69
2022/07/20 01:38:34;;;;;;;6.45;3.47;;;22.10;86.30;;;;;;5018926;28;20132;-69
2022/07/20 01:40:59;;;;;;;7.18;3.47;;;22.10;87.60;;;;;;5017763;28;20044;-69
2022/07/20 01:43:25;;;;;;;8.18;3.53;;;22.00;88.50;;;;;;5034445;28;20037;-69
2022/07/20 01:45:50;;;;;;;6.75;3.40;;;22.00;89.20;;;;;;5033231;28;20044;-69
2022/07/20 01:48:16;;;;;;;5.53;3.20;;;21.90;89.80;;;;;;5031747;28;20045;-69
2022/07/20 01:50:41;;;;;;;6.20;3.35;;;21.90;89.60;;;;;;5018105;28;20115;-69
2022/07/20 01:53:07;;;;;;;8.13;3.38;;;21.80;89.20;;;;;;5018385;28;20099;-69
2022/07/20 01:55:34;;;;;;;10.00;3.78;;;21.80;87.60;;;;;;5018576;28;20033;-69
2022/07/20 01:57:59;;;;;;;6.95;3.13;;;21.80;88.40;;;;;;5018062;28;20119;-70
2022/07/20 02:00:25;;;;;;;7.05;3.63;;;21.80;88.60;;;;;;5035156;28;20132;-69
2022/07/20 02:02:51;;;;;;;6.78;3.50;;;21.80;88.10;;;;;;5035143;28;20037;-69
2022/07/20 02:05:18;;;;;;;7.25;3.50;;;21.70;87.80;;;;;;5018100;28;20033;-70
2022/07/20 02:07:44;;;;;;;8.65;3.70;;;21.70;88.10;;;;;;5017945;28;20374;-70
2022/07/20 02:10:11;;;;;;;7.18;3.63;;;21.70;88.60;;;;;;5018523;28;20485;-70
2022/07/20 02:12:38;;;;;;;8.55;3.85;;;21.70;88.60;;;;;;5018198;28;20452;-69
2022/07/20 02:15:08;;;;;;;6.85;3.40;;;21.70;88.40;;;;;;5033023;28;20033;-70
2022/07/20 02:17:34;;;;;;;8.60;3.88;;;21.60;87.90;;;;;;5015044;28;20376;-69
2022/07/20 02:20:00;;;;;;;7.82;3.50;;;21.60;89.20;;;;;;5015063;28;20124;-70
2022/07/20 02:22:27;;;;;;;6.85;3.70;;;21.60;89.40;;;;;;5011874;28;20040;-69
2022/07/20 02:24:53;;;;;;;6.60;3.13;;;21.60;88.60;;;;;;5031924;28;20032;-69
2022/07/20 02:27:19;;;;;;;6.57;3.58;;;21.50;88.40;;;;;;5032206;28;20055;-70
2022/07/20 02:29:44;;;;;;;7.18;3.78;;;21.50;88.70;;;;;;5032891;28;20029;-70
2022/07/20 02:32:10;;;;;;;9.48;3.70;;;21.50;88.40;;;;;;5014294;28;20041;-69
2022/07/20 02:34:35;;;;;;;7.30;3.60;;;21.50;88.70;;;;;;5016385;28;20442;-69
2022/07/20 02:37:01;;;;;;;7.28;3.53;;;21.50;88.80;;;;;;5031881;28;20045;-69
2022/07/20 02:39:26;;;;;;;8.60;3.70;;;21.50;89.40;;;;;;5015327;28;20417;-69
2022/07/20 02:41:52;;;;;;;8.88;3.40;;;21.40;90.00;;;;;;5032551;28;20045;-69
2022/07/20 02:44:18;;;;;;;6.82;3.25;;;21.40;90.60;;;;;;5033782;28;20044;-69
2022/07/20 02:46:43;;;;;;;7.85;3.70;;;21.40;90.90;;;;;;5032842;28;20044;-69
2022/07/20 02:49:09;;;;;;;8.85;3.60;;;21.50;90.80;;;;;;5017790;28;20041;-69
2022/07/20 02:51:34;;;;;;;7.38;3.70;;;21.50;90.30;;;;;;5030802;28;20046;-69
2022/07/20 02:54:00;;;;;;;9.07;4.13;;;21.50;90.20;;;;;;5035057;28;20068;-69
2022/07/20 02:56:26;;;;;;;7.93;3.80;;;21.50;89.70;;;;;;5037523;28;20393;-69
2022/07/20 02:58:51;;;;;;;7.05;3.72;;;21.40;90.10;;;;;;5019899;28;20485;-69
2022/07/20 03:01:17;;;;;;;6.78;3.20;;;21.40;90.30;;;;;;5037312;28;20043;-69
2022/07/20 03:03:42;;;;;;;7.75;4.28;;;21.40;90.20;;;;;;5020365;28;20041;-69
2022/07/20 03:06:09;;;;;;;8.95;4.13;;;21.30;90.10;;;;;;5037141;28;20405;-69
2022/07/20 03:08:35;;;;;;;9.25;3.92;;;21.30;90.10;;;;;;5036555;28;20041;-69
2022/07/20 03:11:00;;;;;;;7.70;3.95;;;21.30;89.10;;;;;;5031948;28;20083;-69
2022/07/20 03:13:26;;;;;;;8.30;4.00;;;21.20;89.70;;;;;;5019855;28;20060;-69
2022/07/20 03:15:52;;;;;;;9.88;4.00;;;21.20;90.40;;;;;;5035532;28;20394;-69
2022/07/20 03:18:18;;;;;;;8.27;3.90;;;21.20;90.40;;;;;;5037096;28;20071;-69
2022/07/20 03:20:44;;;;;;;7.80;3.88;;;21.20;90.30;;;;;;5019163;28;20072;-69
2022/07/20 03:23:09;;;;;;;8.02;4.32;;;21.20;90.30;;;;;;5020567;28;20531;-69
2022/07/20 03:25:35;;;;;;;9.95;3.83;;;21.10;90.30;;;;;;5036868;28;20045;-69
2022/07/20 03:28:01;;;;;;;6.53;3.53;;;21.10;90.60;;;;;;5037440;28;20123;-70
2022/07/20 03:30:27;;;;;;;8.38;4.00;;;21.10;90.30;;;;;;5035740;28;20037;-69
2022/07/20 03:32:54;;;;;;;6.82;3.80;;;21.10;90.50;;;;;;5030552;28;20041;-69
2022/07/20 03:35:19;;;;;;;8.07;4.32;;;21.20;90.70;;;;;;5018276;28;20033;-69
2022/07/20 03:37:45;;;;;;;9.80;3.90;;;21.10;90.60;;;;;;5020100;28;20445;-69
2022/07/20 03:40:11;;;;;;;7.88;3.70;;;21.10;90.70;;;;;;5036829;28;20389;-69
2022/07/20 03:42:36;;;;;;;10.05;4.22;;;21.00;90.40;;;;;;5020513;28;20041;-69
2022/07/20 03:45:03;;;;;;;7.97;3.70;;;21.00;90.50;;;;;;5026351;28;20051;-69
2022/07/20 03:47:28;;;;;;;7.88;3.95;;;21.00;90.60;;;;;;5037263;28;20037;-69
2022/07/20 03:49:54;;;;;;;7.82;3.60;;;20.90;90.60;;;;;;5023149;28;20425;-69
2022/07/20 03:52:20;;;;;;;7.97;4.40;;;20.90;91.00;;;;;;5020668;28;20045;-69
2022/07/20 03:54:45;;;;;;;8.20;4.25;;;20.90;91.00;;;;;;5033027;28;20123;-69
2022/07/20 03:57:11;;;;;;;7.57;3.63;;;20.90;90.80;;;;;;5017234;28;20103;-69
2022/07/20 03:59:37;;;;;;;10.00;3.97;;;20.90;91.00;;;;;;5025564;28;20041;-69
2022/07/20 04:02:04;;;;;;;7.72;3.67;;;20.90;91.00;;;;;;5018493;28;20043;-69
2022/07/20 04:04:30;;;;;;;8.23;3.85;;;20.90;90.80;;;;;;5036234;28;20033;-69
2022/07/20 04:06:56;;;;;;;8.02;3.90;;;20.90;91.10;;;;;;5018027;28;20505;-70
2022/07/20 04:12:08;;;;;;;6.82;3.80;;;20.80;91.30;;;;;;5035897;28;20041;-69
2022/07/20 04:14:34;;;;;;;7.43;3.65;;;20.80;91.60;;;;;;5024255;28;20429;-69
2022/07/20 04:16:59;;;;;;;9.75;4.03;;;20.80;92.10;;;;;;5022452;28;20393;-69
2022/07/20 04:19:25;;;;;;;6.45;3.83;;;20.80;92.30;;;;;;5019448;28;20037;-69
2022/07/20 04:21:58;;;;;;;6.75;3.35;;;20.70;92.40;;;;;;5033922;28;20531;-69
2022/07/20 04:24:24;;;;;;;8.20;4.10;;;20.80;92.70;;;;;;5035605;28;20037;-69
2022/07/20 04:26:50;;;;;;;7.82;3.80;;;20.80;92.80;;;;;;5021983;28;20048;-69
2022/07/20 04:29:15;;;;;;;7.57;3.75;;;20.80;93.10;;;;;;5036402;28;20068;-69
2022/07/20 04:31:41;;;;;;;6.80;3.92;;;20.80;93.30;;;;;;5024305;28;20061;-69
2022/07/20 04:34:07;;;;;;;6.47;3.70;;;20.80;93.40;;;;;;5034052;28;20048;-69
2022/07/20 04:36:33;;;;;;;8.68;4.28;;;20.80;93.40;;;;;;5018668;28;20489;-69
2022/07/20 04:38:58;;;;;;;7.15;3.70;;;20.80;93.50;;;;;;5040765;28;20032;-69
2022/07/20 04:41:24;;;;;;;10.07;4.32;;;20.90;93.60;;;;;;5033707;28;20040;-69
2022/07/20 04:43:50;;;;;;;9.77;4.30;;;20.90;94.40;;;;;;5023841;28;20516;-69
2022/07/20 04:46:16;;;;;;;9.02;4.10;;;20.90;94.20;;;;;;5015724;28;20041;-69
2022/07/20 04:48:41;;;;;;;9.05;4.03;;;20.90;94.30;;;;;;5018420;28;20037;-69
2022/07/20 04:51:07;;;;;;;7.13;3.53;;;20.90;94.40;;;;;;5035250;28;20063;-69
2022/07/20 04:53:32;;;;;;;6.97;4.18;;;20.90;94.90;;;;;;5034903;28;20044;-69
2022/07/20 04:55:58;;;;;;;10.50;3.63;;;21.00;95.50;;;;;;5022249;28;20455;-69
2022/07/20 04:58:23;;;;;;;8.25;3.83;;;21.00;95.90;;;;;;5033654;28;20044;-69
2022/07/20 05:00:49;;;;;;;10.23;4.18;;;21.00;96.00;;;;;;5039008;28;20032;-69
2022/07/20 05:03:15;;;;;;;9.10;3.75;;;21.00;95.80;;;;;;5019212;28;20485;-69
2022/07/20 05:05:40;;;;;;;7.70;3.70;;;21.00;95.90;;;;;;5034644;28;20047;-69
2022/07/20 05:08:06;;;;;;;9.73;4.20;;;21.00;96.20;;;;;;5033323;28;20040;-69
2022/07/20 05:10:31;;;;;;;6.63;3.92;;;21.10;96.20;;;;;;5023783;28;20386;-69
2022/07/20 05:12:57;;;;;;;6.78;3.75;;;21.20;95.50;;;;;;5031836;28;20044;-69
2022/07/20 05:15:25;;;;;;;8.93;4.13;;;21.30;94.40;;;;;;5032928;28;20033;-69
2022/07/20 05:17:51;;;;;;;8.38;4.65;;;21.50;93.20;;;;;;5027842;28;20045;-69
2022/07/20 05:20:17;;;;;;;8.50;3.72;;;21.50;92.50;;;;;;5016151;28;20072;-69
2022/07/20 05:22:42;;;;;;;10.68;4.38;;;21.70;92.00;;;;;;5033772;28;20079;-69
2022/07/20 05:25:09;;;;;;;7.30;3.88;;;21.90;92.00;;;;;;5033920;28;20045;-69
2022/07/20 05:27:35;;;;;;;9.88;4.20;;;22.00;91.90;;;;;;5018243;28;20033;-69
2022/07/20 05:30:00;;;;;;;8.35;4.70;;;22.10;91.30;;;;;;5038632;28;20041;-69
2022/07/20 05:32:26;;;;;;;8.40;4.45;;;22.20;90.60;;;;;;5025079;28;20053;-69
2022/07/20 05:34:51;;;;;;;9.85;3.83;;;22.30;90.30;;;;;;5025183;28;20048;-69
2022/07/20 05:37:17;;;;;;;7.65;4.35;;;22.30;90.50;;;;;;5031857;28;20029;-69
2022/07/20 05:39:43;;;;;;;8.77;4.00;;;22.30;91.80;;;;;;5034599;28;20090;-69
2022/07/20 05:42:09;;;;;;;7.25;4.03;;;22.40;91.00;;;;;;5031938;28;20053;-69
2022/07/20 05:44:35;;;;;;;8.68;4.82;;;22.40;90.60;;;;;;5018258;28;20040;-69
2022/07/20 05:47:00;;;;;;;6.55;4.13;;;22.50;90.10;;;;;;5033375;28;20052;-69
2022/07/20 05:49:26;;;;;;;9.80;4.63;;;22.60;89.10;;;;;;5017651;28;20041;-69
2022/07/20 05:51:51;;;;;;;8.10;4.20;;;22.70;90.10;;;;;;5017061;28;20459;-69
2022/07/20 05:54:17;;;;;;;9.02;4.30;;;22.60;91.00;;;;;;5034139;28;20140;-69
2022/07/20 05:56:43;;;;;;;7.07;4.20;;;22.70;90.70;;;;;;5021775;28;20082;-69
2022/07/20 05:59:08;;;;;;;7.45;4.13;;;22.70;90.90;;;;;;5032777;28;20108;-69
2022/07/20 06:01:34;;;;;;;6.57;4.15;;;22.80;91.20;;;;;;5034025;28;20044;-69
2022/07/20 06:04:00;;;;;;;9.38;4.43;;;22.90;91.40;;;;;;5033167;28;20044;-69
2022/07/20 06:06:26;;;;;;;8.50;4.05;;;23.10;91.30;;;;;;5016971;28;20405;-69
2022/07/20 06:08:51;;;;;;;9.32;4.20;;;23.20;91.10;;;;;;5033860;28;20041;-69
2022/07/20 06:11:17;;;;;;;9.43;4.47;;;23.30;90.50;;;;;;5032021;28;20413;-69
2022/07/20 06:13:42;;;;;;;6.97;4.47;;;23.40;90.80;;;;;;5017426;28;20036;-69
2022/07/20 06:16:08;;;;;;;7.53;4.25;;;23.50;90.60;;;;;;5029992;28;20037;-69
2022/07/20 06:18:34;;;;;;;8.80;4.40;;;23.70;90.20;;;;;;5025763;28;20037;-69
2022/07/20 06:20:59;;;;;;;7.72;3.90;;;23.80;89.60;;;;;;5029411;28;20044;-69
2022/07/20 06:23:25;;;;;;;10.57;4.20;;;23.80;90.10;;;;;;5015954;28;20481;-69
2022/07/20 06:25:50;;;;;;;8.88;4.45;;;23.90;90.40;;;;;;5034150;28;20040;-69
2022/07/20 06:28:16;;;;;;;8.98;3.95;;;24.00;90.90;;;;;;5030290;28;20460;-69
2022/07/20 06:30:41;;;;;;;9.75;4.32;;;24.10;90.70;;;;;;5028736;28;20056;-69
2022/07/20 06:33:07;;;;;;;8.57;4.28;;;24.30;90.50;;;;;;5034807;28;20052;-69
2022/07/20 06:35:32;;;;;;;8.73;4.22;;;24.40;90.30;;;;;;5019781;28;20084;-69
2022/07/20 06:37:58;;;;;;;11.45;4.00;;;24.50;89.30;;;;;;5037144;28;20072;-69
2022/07/20 06:40:24;;;;;;;9.40;4.00;;;24.70;86.40;;;;;;5020221;28;20029;-69
2022/07/20 06:42:50;;;;;;;8.23;4.25;;;24.70;84.50;;;;;;5037499;28;20037;-69
2022/07/20 06:45:15;;;;;;;9.40;4.30;;;24.90;83.70;;;;;;5035784;28;20080;-69
2022/07/20 06:47:41;;;;;;;8.45;4.30;;;25.00;81.30;;;;;;5038751;28;20059;-69
2022/07/20 06:50:07;;;;;;;9.10;4.28;;;25.00;81.00;;;;;;5019652;28;20033;-69
2022/07/20 06:52:33;;;;;;;10.30;4.35;;;25.10;80.90;;;;;;5036332;28;20118;-69
2022/07/20 06:54:59;;;;;;;7.43;4.82;;;25.20;80.40;;;;;;5030294;28;20034;-69
2022/07/20 06:57:24;;;;;;;8.95;4.43;;;25.30;78.90;;;;;;5019652;28;20443;-69
2022/07/20 06:59:50;;;;;;;7.88;4.20;;;25.30;77.40;;;;;;5042965;28;20041;-69
2022/07/20 07:02:16;;;;;;;10.13;4.63;;;25.40;78.10;;;;;;5020419;28;20033;-69
2022/07/20 07:04:42;;;;;;;9.40;4.88;;;25.50;77.10;;;;;;5034737;28;20494;-69
2022/07/20 07:07:08;;;;;;;9.80;5.15;;;25.50;75.90;;;;;;5036693;28;20048;-69
2022/07/20 07:09:33;;;;;;;10.23;5.03;;;25.60;77.00;;;;;;5018987;28;20512;-69
2022/07/20 07:11:59;;;;;;;9.70;5.00;;;25.70;75.30;;;;;;5036380;28;20071;-69
2022/07/20 07:14:25;;;;;;;7.80;4.93;;;25.70;75.00;;;;;;5031403;28;20026;-69
2022/07/20 07:16:52;;;;;;;9.07;5.10;;;25.70;75.40;;;;;;5019833;28;20141;-69
2022/07/20 07:19:17;;;;;;;10.63;5.05;;;25.70;76.80;;;;;;5034291;28;20037;-69
2022/07/20 07:21:43;;;;;;;11.85;5.18;;;25.80;77.40;;;;;;5020284;28;20048;-71
2022/07/20 07:24:09;;;;;;;8.85;4.85;;;25.80;76.60;;;;;;5036764;28;20044;-71
2022/07/20 07:26:34;;;;;;;12.80;5.20;;;25.80;76.20;;;;;;5034148;28;20048;-72
2022/07/20 07:29:00;;;;;;;8.50;5.40;;;25.90;77.70;;;;;;5019611;28;20520;-71
2022/07/20 07:31:25;;;;;;;8.70;5.10;;;25.90;76.70;;;;;;5013834;28;20060;-71
2022/07/20 07:33:51;;;;;;;9.63;5.82;;;26.00;75.30;;;;;;5035374;28;20116;-71
2022/07/20 07:36:17;;;;;;;11.68;5.60;;;26.10;75.20;;;;;;5023082;28;20036;-69
2022/07/20 07:38:42;;;;;;;11.70;5.63;;;26.10;75.50;;;;;;5018987;28;20566;-69
2022/07/20 07:41:08;;;;;;;8.85;5.45;;;26.10;75.40;;;;;;5020305;28;20035;-69
2022/07/20 07:43:34;;;;;;;15.35;6.15;;;26.20;75.80;;;;;;5019805;28;20068;-69
2022/07/20 07:45:59;;;;;;;11.73;5.70;;;26.20;75.40;;;;;;5019340;28;20055;-69
2022/07/20 07:48:25;;;;;;;10.32;5.80;;;26.30;76.90;;;;;;5035470;28;20051;-69
2022/07/20 07:50:50;;;;;;;16.48;5.90;;;26.40;76.00;;;;;;5034579;28;20041;-69
2022/07/20 07:53:16;;;;;;;9.50;6.05;;;26.40;76.40;;;;;;5036571;28;20374;-69
2022/07/20 07:55:42;;;;;;;9.68;5.93;;;26.50;75.70;;;;;;5034753;28;20037;-69
2022/07/20 07:58:10;;;;;;;11.20;6.70;;;26.50;78.00;;;;;;5036022;28;20041;-69
2022/07/20 08:00:37;;;;;;;12.75;6.85;;;26.60;79.40;;;;;;5021962;28;20513;-70
2022/07/20 08:03:03;;;;;;;13.48;7.28;;;26.70;78.80;;;;;;5034735;28;20044;-69
2022/07/20 08:05:29;;;;;;;11.35;7.10;;;26.70;79.10;;;;;;5035589;28;20118;-69
2022/07/20 08:07:55;;;;;;;13.10;8.00;;;26.80;79.90;;;;;;5014128;28;20477;-69
2022/07/20 08:10:21;;;;;;;13.77;8.05;;;26.80;81.00;;;;;;5019252;28;20036;-69
2022/07/20 08:12:46;;;;;;;12.35;7.50;;;26.90;81.40;;;;;;5035209;28;20119;-69
2022/07/20 08:15:13;;;;;;;13.00;8.40;;;27.00;81.90;;;;;;5035142;28;20036;-69
2022/07/20 08:17:39;;;;;;;15.07;8.50;;;27.10;82.60;;;;;;5033515;28;20040;-70
2022/07/20 08:20:06;;;;;;;12.68;9.10;;;27.20;83.40;;;;;;5016595;28;20484;-69
2022/07/20 08:22:32;;;;;;;13.75;9.68;;;27.20;83.60;;;;;;5034853;28;20045;-70
2022/07/20 08:24:59;;;;;;;16.38;9.95;;;27.30;83.30;;;;;;5019492;28;20037;-70
2022/07/20 08:27:24;;;;;;;16.52;10.07;;;27.40;84.50;;;;;;5035109;28;20037;-70
2022/07/20 08:29:52;;;;;;;16.15;10.65;;;27.40;85.10;;;;;;5035312;28;20049;-69
2022/07/20 08:32:17;;;;;;;14.20;10.88;;;27.60;85.10;;;;;;5023649;28;20049;-69
2022/07/20 08:34:43;;;;;;;19.17;11.73;;;27.60;86.00;;;;;;5035054;28;20043;-70
2022/07/20 08:37:08;;;;;;;19.73;13.93;;;27.60;86.60;;;;;;5031949;28;20052;-70
2022/07/20 08:39:34;;;;;;;19.98;14.82;;;27.70;88.50;;;;;;5028876;28;20115;-70
2022/07/20 08:41:59;;;;;;;18.17;15.65;;;27.70;89.70;;;;;;5009276;28;20036;-70
2022/07/20 08:44:25;;;;;;;22.55;17.05;;;27.80;90.00;;;;;;5034798;28;20040;-69
2022/07/20 08:46:54;;;;;;;21.10;16.45;;;27.90;91.40;;;;;;5034695;28;20136;-69
2022/07/20 08:49:20;;;;;;;22.50;17.65;;;27.90;91.40;;;;;;5034123;28;20567;-69
2022/07/20 08:51:45;;;;;;;25.48;18.05;;;27.90;91.80;;;;;;5028782;28;20045;-69
2022/07/20 08:54:11;;;;;;;27.42;18.77;;;28.00;91.90;;;;;;5034410;28;20128;-69
2022/07/20 08:56:37;;;;;;;23.52;19.60;;;28.00;92.10;;;;;;5031765;28;20041;-70
2022/07/20 08:59:02;;;;;;;23.58;19.77;;;28.00;92.80;;;;;;5048350;28;20451;-70
2022/07/20 09:01:28;;;;;;;24.60;19.85;;;28.00;92.30;;;;;;5045532;28;20029;-70
2022/07/20 09:04:09;;;;;;;24.83;20.55;;;28.00;92.80;;;;;;5018872;28;20047;-69
2022/07/20 09:06:34;;;;;;;22.42;19.20;;;28.10;93.20;;;;;;5030583;28;20041;-70
2022/07/20 09:09:05;;;;;;;24.63;19.92;;;28.10;92.90;;;;;;5012096;28;20403;-70
2022/07/20 09:11:32;;;;;;;24.00;20.17;;;28.30;93.60;;;;;;5001671;28;20056;-70
2022/07/20 09:13:58;;;;;;;24.10;19.38;;;28.40;94.10;;;;;;5019030;28;20048;-70
2022/07/20 09:16:50;;;;;;;26.20;20.77;;;28.40;94.00;;;;;;5029849;28;20032;-70
2022/07/20 09:19:16;;;;;;;27.50;20.35;;;28.40;94.20;;;;;;5005954;28;20041;-70
2022/07/20 09:21:42;;;;;;;25.42;20.65;;;28.30;93.50;;;;;;5029954;28;20277;-70
2022/07/20 09:24:09;;;;;;;24.63;20.98;;;28.20;93.50;;;;;;5035068;28;20090;-70
2022/07/20 09:26:36;;;;;;;23.30;20.52;;;28.20;93.50;;;;;;5033761;28;20060;-69
2022/07/20 09:29:04;;;;;;;28.20;21.63;;;28.20;93.70;;;;;;5017672;28;20045;-70
2022/07/20 09:31:37;;;;;;;23.90;20.38;;;28.30;93.30;;;;;;5033656;28;20057;-70
2022/07/20 09:34:06;;;;;;;24.23;20.42;;;28.40;93.60;;;;;;5031549;28;20611;-69
2022/07/20 09:36:37;;;;;;;26.23;20.98;;;28.40;94.20;;;;;;5017480;28;20052;-69
2022/07/20 09:39:11;;;;;;;25.83;20.35;;;28.40;93.20;;;;;;5031924;28;20033;-70
2022/07/20 09:41:39;;;;;;;24.38;20.00;;;28.40;92.80;;;;;;5011815;28;20128;-70
2022/07/20 09:44:06;;;;;;;24.70;20.98;;;28.40;92.90;;;;;;5011779;28;20036;-70
2022/07/20 09:46:34;;;;;;;25.90;20.65;;;28.40;93.70;;;;;;5034543;28;20135;-70
2022/07/20 09:49:10;;;;;;;27.50;21.33;;;28.50;93.40;;;;;;5008268;28;20481;-70
2022/07/20 09:51:38;;;;;;;25.85;21.30;;;28.40;91.70;;;;;;5013782;28;20040;-70
2022/07/20 09:54:07;;;;;;;25.38;21.80;;;28.30;92.10;;;;;;5017899;28;20060;-70
2022/07/20 09:56:34;;;;;;;25.42;21.88;;;28.30;91.30;;;;;;5034937;28;20416;-70
2022/07/20 09:59:02;;;;;;;27.02;21.42;;;28.30;91.90;;;;;;5034161;28;20041;-70
2022/07/20 10:01:30;;;;;;;28.33;22.70;;;28.40;91.40;;;;;;5034335;28;20045;-70
2022/07/20 10:03:58;;;;;;;25.23;20.67;;;28.30;91.10;;;;;;5030376;28;20122;-70
2022/07/20 10:06:25;;;;;;;25.95;21.63;;;28.30;90.50;;;;;;5032995;28;20097;-70
2022/07/20 10:08:51;;;;;;;25.38;20.92;;;28.40;90.90;;;;;;5034310;28;20068;-70
2022/07/20 10:11:18;;;;;;;24.77;22.10;;;28.60;91.30;;;;;;5021140;28;20029;-70
2022/07/20 10:13:48;;;;;;;27.30;21.30;;;28.50;90.60;;;;;;5055202;28;20122;-70
2022/07/20 10:16:23;;;;;;;26.00;20.73;;;28.50;90.20;;;;;;5022278;28;20171;-70
2022/07/20 10:18:48;;;;;;;25.55;20.95;;;28.60;90.20;;;;;;5038462;28;20515;-70
2022/07/20 10:21:39;;;;;;;24.63;20.20;;;28.70;90.20;;;;;;5037938;28;20041;-70
2022/07/20 10:24:25;;;;;;;25.30;19.42;;;28.70;90.10;;;;;;5052633;28;20047;-70
2022/07/20 10:26:53;;;;;;;22.67;19.27;;;28.80;90.60;;;;;;5019232;28;20492;-70
2022/07/20 10:29:34;;;;;;;22.10;18.88;;;28.80;89.40;;;;;;5031988;28;20121;-70
2022/07/20 10:32:24;;;;;;;22.45;19.25;;;28.90;90.00;;;;;;5022465;28;20414;-70
2022/07/20 10:34:58;;;;;;;23.65;18.05;;;28.90;87.30;;;;;;5034461;28;20048;-70
2022/07/20 10:37:38;;;;;;;21.63;18.40;;;28.80;87.80;;;;;;5020449;28;20051;-70
2022/07/20 10:40:04;;;;;;;21.80;17.60;;;28.90;87.90;;;;;;5036160;28;20037;-70
2022/07/20 10:42:33;;;;;;;23.08;18.00;;;28.90;84.90;;;;;;5037129;28;20052;-70
2022/07/20 10:45:20;;;;;;;21.80;17.05;;;28.80;85.20;;;;;;5020148;28;20068;-70
2022/07/20 10:47:53;;;;;;;25.63;18.23;;;28.80;86.70;;;;;;5017666;28;20051;-70
2022/07/20 10:50:37;;;;;;;22.45;17.20;;;28.80;85.10;;;;;;5027535;28;20045;-70
2022/07/20 10:53:14;;;;;;;19.48;16.38;;;28.80;85.00;;;;;;5051031;28;20507;-70
2022/07/20 10:55:50;;;;;;;22.02;16.63;;;28.80;82.60;;;;;;5023406;28;20047;-70
2022/07/20 10:58:21;;;;;;;21.27;16.40;;;28.90;83.00;;;;;;5036387;28;20545;-70
2022/07/20 11:00:50;;;;;;;19.30;15.50;;;28.90;85.20;;;;;;5019574;28;20179;-70
2022/07/20 11:03:25;;;;;;;19.48;14.90;;;29.00;82.90;;;;;;5027177;28;20126;-70
2022/07/20 11:06:02;;;;;;;16.80;14.75;;;28.90;80.80;;;;;;5034282;28;20044;-70
2022/07/20 11:08:28;;;;;;;17.42;13.23;;;28.90;82.30;;;;;;5031845;28;20048;-70
2022/07/20 11:10:55;;;;;;;16.52;13.35;;;29.00;82.40;;;;;;5034056;28;20041;-70
2022/07/20 11:13:21;;;;;;;17.23;12.93;;;29.00;82.20;;;;;;5032666;28;20387;-70
2022/07/20 11:15:57;;;;;;;16.77;12.48;;;29.10;80.70;;;;;;5018351;28;20486;-70
2022/07/20 11:18:26;;;;;;;17.38;12.35;;;29.10;80.40;;;;;;5033560;28;20036;-70
2022/07/20 11:20:54;;;;;;;18.25;11.45;;;29.00;78.50;;;;;;5017088;28;20040;-70
2022/07/20 11:23:24;;;;;;;15.15;11.13;;;29.00;79.20;;;;;;5036866;28;20048;-70
2022/07/20 11:25:55;;;;;;;13.85;11.02;;;29.00;77.80;;;;;;5035458;28;20037;-70
2022/07/20 11:28:34;;;;;;;17.05;11.77;;;29.00;80.40;;;;;;5034917;28;20048;-70
2022/07/20 11:31:01;;;;;;;15.55;11.10;;;29.10;78.40;;;;;;5035700;28;20103;-70
2022/07/20 11:33:28;;;;;;;18.40;12.07;;;29.10;78.90;;;;;;5020107;28;20047;-70
2022/07/20 11:35:58;;;;;;;16.60;10.82;;;29.10;80.00;;;;;;5035174;28;20037;-70
2022/07/20 11:38:32;;;;;;;14.55;10.70;;;29.10;79.60;;;;;;5018604;28;20122;-70
2022/07/20 11:41:03;;;;;;;15.32;10.82;;;29.00;79.60;;;;;;5035112;28;20045;-70
2022/07/20 11:43:29;;;;;;;18.60;10.10;;;29.00;79.60;;;;;;5019566;28;20129;-70
2022/07/20 11:46:17;;;;;;;14.85;10.57;;;29.00;79.00;;;;;;5035620;28;20075;-70
2022/07/20 11:48:50;;;;;;;17.00;10.48;;;29.00;79.60;;;;;;5033641;28;20080;-70
2022/07/20 11:51:16;;;;;;;16.55;11.23;;;29.10;79.80;;;;;;5036438;28;20041;-70
2022/07/20 11:53:42;;;;;;;17.83;10.65;;;29.10;80.10;;;;;;5035142;28;20040;-71
2022/07/20 11:56:16;;;;;;;20.08;11.30;;;29.20;79.40;;;;;;5019341;28;20120;-70
2022/07/20 11:58:43;;;;;;;18.48;11.73;;;29.10;78.30;;;;;;5032991;28;20037;-70
2022/07/20 12:01:14;;;;;;;16.38;11.88;;;29.00;80.80;;;;;;5035538;28;20052;-70
2022/07/20 12:03:42;;;;;;;15.25;11.02;;;29.00;79.70;;;;;;5032809;28;20178;-70
2022/07/20 12:06:10;;;;;;;15.80;11.48;;;28.90;80.00;;;;;;5029244;28;20540;-70
2022/07/20 12:08:37;;;;;;;15.60;12.10;;;29.00;80.40;;;;;;5030122;28;20439;-70
2022/07/20 12:11:03;;;;;;;19.13;12.43;;;29.00;79.10;;;;;;5034273;28;20037;-70
2022/07/20 12:13:29;;;;;;;14.82;11.63;;;28.90;78.80;;;;;;5018133;28;20036;-70
2022/07/20 12:15:58;;;;;;;16.17;10.90;;;28.90;79.20;;;;;;5018249;28;20037;-70
2022/07/20 12:18:51;;;;;;;14.55;10.27;;;29.00;79.00;;;;;;5018045;28;20091;-70
2022/07/20 12:21:24;;;;;;;14.02;10.55;;;28.90;78.60;;;;;;5035123;28;20044;-70
2022/07/20 12:23:51;;;;;;;16.02;11.13;;;29.00;78.50;;;;;;5034810;28;20047;-70
2022/07/20 12:26:27;;;;;;;13.98;9.82;;;29.00;80.10;;;;;;5035960;28;20378;-70
2022/07/20 12:29:14;;;;;;;13.82;9.85;;;29.10;78.00;;;;;;5017716;28;20044;-70
2022/07/20 12:31:39;;;;;;;12.15;8.57;;;29.10;78.60;;;;;;5004108;28;20053;-70
2022/07/20 12:34:11;;;;;;;11.27;8.70;;;29.10;77.60;;;;;;5033912;28;20078;-70
2022/07/20 12:36:41;;;;;;;;;;;29.00;76.60;;;;;;5002097;28;20037;-70
2022/07/20 12:39:10;;;;;;;14.18;8.55;;;29.00;76.80;;;;;;5034478;28;19966;-70
2022/07/20 12:41:36;;;;;;;11.60;8.20;;;29.00;75.30;;;;;;5034868;28;20052;-70
2022/07/20 12:44:25;;;;;;;13.68;8.88;;;29.00;74.00;;;;;;5034713;28;20489;-70
2022/07/20 12:46:55;;;;;;;15.18;8.93;;;28.90;75.00;;;;;;5018279;28;20051;-70